Fort Mill, South Carolina
Current Conditions -  °F | °C
As of 11:54 PM on Saturday 20 Dec 2014 (Local Time) from KUZA Reporting Station
Overcast Overcast  
Wind Chill: 42°   Ceiling: 2200
Heat Index: 42°   Visibility: 7mi
Dew Point: 37°   Wind: 0mph
Humidity: 82%   Direction: NA
Pressure: 30.26"   Gusts: NA
Location:  35.01°N, 80.94°W
Report Text: KUZA 210454Z AUTO 00000KT 7SM OVC022 06/03 A3026 RMK AO2 SLP250 T00560028 400720044
Loading
Personal Weather Stations






























Interactive Weather Map New forecast layout! Learn more

10-Day Weather Forecast

Advertisements
Track Severe Weather on mobile